Time;durP1;ratioP1;P1;durP2;ratioP2;P2;SDS_P1;SDS_P2;PMS_P1;PMS_P2;Temp;Humidity;BMP_temperature;BMP_pressure;BME280_temperature;BME280_humidity;BME280_pressure;Samples;Min_cycle;Max_cycle;Signal;HPM_P1;HPM_P2
2024/02/18 00:01:37;;;;;;;6.13;2.17;;;;;;;;;;4990085;28;20034;-79
2024/02/18 00:04:02;;;;;;;11.88;4.75;;;;;;;;;;4991420;28;20026;-78
2024/02/18 00:06:27;;;;;;;6.55;3.38;;;;;;;;;;4991336;28;20038;-78
2024/02/18 00:08:53;;;;;;;6.35;2.95;;;;;;;;;;4990087;28;20022;-78
2024/02/18 00:11:18;;;;;;;8.05;3.40;;;;;;;;;;4990950;28;20617;-77
2024/02/18 00:13:43;;;;;;;8.07;3.10;;;;;;;;;;4990885;28;20414;-78
2024/02/18 00:16:08;;;;;;;9.15;4.15;;;;;;;;;;4991481;28;20065;-78
2024/02/18 00:18:33;;;;;;;5.97;2.50;;;;;;;;;;4991663;28;20038;-78
2024/02/18 00:20:59;;;;;;;6.10;2.65;;;;;;;;;;4990720;28;20046;-78
2024/02/18 00:23:24;;;;;;;6.03;2.30;;;;;;;;;;4991144;28;20026;-78
2024/02/18 00:25:49;;;;;;;8.20;2.80;;;;;;;;;;4991217;28;20072;-78
2024/02/18 00:28:14;;;;;;;7.93;3.33;;;;;;;;;;4991457;28;20046;-78
2024/02/18 00:30:40;;;;;;;8.52;3.45;;;;;;;;;;4989432;28;20410;-78
2024/02/18 00:33:05;;;;;;;7.07;2.88;;;;;;;;;;4985980;28;20108;-78
2024/02/18 00:35:30;;;;;;;7.18;3.45;;;;;;;;;;4988836;28;20030;-78
2024/02/18 00:37:55;;;;;;;6.57;2.72;;;;;;;;;;4990681;28;20392;-78
2024/02/18 00:40:20;;;;;;;7.35;3.60;;;;;;;;;;4991391;28;20117;-78
2024/02/18 00:42:45;;;;;;;7.38;3.33;;;;;;;;;;4991061;28;20479;-78
2024/02/18 00:45:12;;;;;;;6.65;3.38;;;;;;;;;;4991540;28;20040;-78
2024/02/18 00:47:38;;;;;;;8.20;3.90;;;;;;;;;;4991115;28;20030;-79
2024/02/18 00:50:03;;;;;;;8.98;5.07;;;;;;;;;;4990796;28;20031;-78
2024/02/18 00:52:28;;;;;;;8.75;5.40;;;;;;;;;;4990758;28;20022;-78
2024/02/18 00:54:53;;;;;;;8.13;4.53;;;;;;;;;;4995453;28;20034;-78
2024/02/18 00:57:19;;;;;;;9.07;4.78;;;;;;;;;;4991281;28;20030;-78
2024/02/18 00:59:44;;;;;;;8.52;4.43;;;;;;;;;;4990814;28;20149;-78
2024/02/18 01:02:09;;;;;;;9.27;4.13;;;;;;;;;;4996739;28;20046;-78
2024/02/18 01:04:34;;;;;;;7.55;4.25;;;;;;;;;;4990730;28;20022;-78
2024/02/18 01:06:59;;;;;;;10.73;4.85;;;;;;;;;;4991091;28;20598;-78
2024/02/18 01:09:25;;;;;;;11.02;4.13;;;;;;;;;;4980743;28;20030;-78
2024/02/18 01:11:50;;;;;;;7.50;4.32;;;;;;;;;;4990885;28;20385;-78
2024/02/18 01:14:16;;;;;;;7.50;3.83;;;;;;;;;;4992780;28;20033;-78
2024/02/18 01:16:41;;;;;;;10.38;3.92;;;;;;;;;;4994416;28;20110;-78
2024/02/18 01:19:06;;;;;;;7.63;3.67;;;;;;;;;;4994329;28;20538;-78
2024/02/18 01:21:31;;;;;;;6.82;3.67;;;;;;;;;;4993167;28;20376;-78
2024/02/18 01:23:56;;;;;;;9.40;4.07;;;;;;;;;;4999323;28;20062;-78
2024/02/18 01:26:22;;;;;;;6.90;3.90;;;;;;;;;;4994314;28;20081;-78
2024/02/18 01:28:47;;;;;;;10.52;4.60;;;;;;;;;;4993046;28;20254;-78
2024/02/18 01:31:12;;;;;;;8.18;4.05;;;;;;;;;;4993663;28;20446;-78
2024/02/18 01:33:37;;;;;;;7.82;3.47;;;;;;;;;;4993791;28;20093;-78
2024/02/18 01:36:03;;;;;;;9.40;4.88;;;;;;;;;;4993206;28;20046;-78
2024/02/18 01:38:28;;;;;;;9.73;4.22;;;;;;;;;;4994136;28;20026;-78
2024/02/18 01:40:53;;;;;;;7.85;3.72;;;;;;;;;;4993143;28;20070;-78
2024/02/18 01:43:18;;;;;;;10.90;3.95;;;;;;;;;;4992568;28;20027;-78
2024/02/18 01:45:45;;;;;;;6.47;3.45;;;;;;;;;;4992350;28;20038;-77
2024/02/18 01:48:11;;;;;;;8.82;4.15;;;;;;;;;;4984123;28;20034;-77
2024/02/18 01:50:37;;;;;;;8.45;3.80;;;;;;;;;;4991807;28;20084;-78
2024/02/18 01:53:02;;;;;;;7.05;3.30;;;;;;;;;;4992086;28;20112;-77
2024/02/18 01:55:28;;;;;;;10.93;4.30;;;;;;;;;;4993660;28;20034;-78
2024/02/18 01:57:55;;;;;;;6.55;3.58;;;;;;;;;;4992214;28;20030;-78
2024/02/18 02:00:21;;;;;;;11.45;4.20;;;;;;;;;;4992942;28;20044;-78
2024/02/18 02:02:47;;;;;;;8.27;4.07;;;;;;;;;;4993430;28;20018;-77
2024/02/18 02:05:15;;;;;;;51.33;6.97;;;;;;;;;;4993262;28;20038;-78
2024/02/18 02:07:40;;;;;;;9.48;4.03;;;;;;;;;;4992426;28;20063;-78
2024/02/18 02:10:11;;;;;;;7.93;3.85;;;;;;;;;;4993386;28;20420;-78
2024/02/18 02:12:36;;;;;;;8.77;4.60;;;;;;;;;;4993462;28;20118;-78
2024/02/18 02:15:02;;;;;;;10.50;4.00;;;;;;;;;;4992965;28;20106;-78
2024/02/18 02:17:27;;;;;;;7.53;4.20;;;;;;;;;;4993288;28;20050;-78
2024/02/18 02:19:52;;;;;;;8.30;4.65;;;;;;;;;;4986973;28;20053;-78
2024/02/18 02:22:18;;;;;;;9.23;4.40;;;;;;;;;;4992707;28;20031;-76
2024/02/18 02:24:43;;;;;;;10.15;4.75;;;;;;;;;;4990247;28;20073;-77
2024/02/18 02:27:11;;;;;;;9.52;4.90;;;;;;;;;;4989665;28;20022;-77
2024/02/18 02:29:37;;;;;;;8.82;4.13;;;;;;;;;;4992629;28;20065;-77
2024/02/18 02:32:02;;;;;;;7.63;4.07;;;;;;;;;;4991936;28;20037;-78
2024/02/18 02:34:28;;;;;;;9.05;4.82;;;;;;;;;;4991076;28;20737;-77
2024/02/18 02:36:53;;;;;;;11.13;5.13;;;;;;;;;;4993261;28;20077;-78
2024/02/18 02:39:18;;;;;;;8.98;4.70;;;;;;;;;;4993881;28;20041;-77
2024/02/18 02:41:43;;;;;;;11.95;4.50;;;;;;;;;;4991071;28;20034;-77
2024/02/18 02:44:09;;;;;;;7.72;4.35;;;;;;;;;;4992263;28;20061;-78
2024/02/18 02:46:34;;;;;;;9.40;4.88;;;;;;;;;;4992598;28;20106;-78
2024/02/18 02:48:59;;;;;;;9.63;4.60;;;;;;;;;;4992091;28;20148;-78
2024/02/18 02:51:24;;;;;;;13.93;5.82;;;;;;;;;;4994954;28;20029;-77
2024/02/18 02:53:49;;;;;;;11.38;4.53;;;;;;;;;;4992298;28;20387;-77
2024/02/18 02:56:15;;;;;;;10.75;5.40;;;;;;;;;;4992287;28;20479;-77
2024/02/18 02:58:40;;;;;;;9.95;4.63;;;;;;;;;;4992286;28;20122;-78
2024/02/18 03:01:05;;;;;;;9.52;4.40;;;;;;;;;;4991330;28;20125;-77
2024/02/18 03:03:31;;;;;;;7.05;4.32;;;;;;;;;;4992007;28;20026;-77
2024/02/18 03:05:56;;;;;;;7.35;4.35;;;;;;;;;;4991885;28;20105;-77
2024/02/18 03:08:21;;;;;;;8.90;4.40;;;;;;;;;;4992330;28;20457;-78
2024/02/18 03:10:46;;;;;;;8.88;4.88;;;;;;;;;;4991119;28;20034;-77
2024/02/18 03:13:11;;;;;;;9.20;4.28;;;;;;;;;;4995086;28;20036;-77
2024/02/18 03:15:36;;;;;;;10.05;5.15;;;;;;;;;;4995381;28;20030;-78
2024/02/18 03:18:03;;;;;;;8.93;4.78;;;;;;;;;;4992000;28;20086;-78
2024/02/18 03:20:28;;;;;;;7.90;4.10;;;;;;;;;;4991453;28;20065;-77
2024/02/18 03:22:53;;;;;;;10.88;4.32;;;;;;;;;;4991791;28;20060;-78
2024/02/18 03:25:20;;;;;;;8.75;4.22;;;;;;;;;;4991981;28;20022;-78
2024/02/18 03:27:45;;;;;;;8.18;4.53;;;;;;;;;;4991885;28;20026;-78
2024/02/18 03:30:11;;;;;;;10.07;5.03;;;;;;;;;;4991649;28;20093;-78
2024/02/18 03:32:36;;;;;;;10.15;4.80;;;;;;;;;;4992012;28;20046;-78
2024/02/18 03:35:04;;;;;;;10.02;4.97;;;;;;;;;;4991291;28;20027;-78
2024/02/18 03:37:29;;;;;;;9.63;5.28;;;;;;;;;;4991047;28;20026;-78
2024/02/18 03:39:54;;;;;;;30.58;5.18;;;;;;;;;;4991569;28;20038;-78
2024/02/18 03:42:19;;;;;;;16.88;5.10;;;;;;;;;;4991364;28;20033;-78
2024/02/18 03:44:44;;;;;;;19.73;5.65;;;;;;;;;;4991254;28;20491;-78
2024/02/18 03:47:10;;;;;;;38.75;6.85;;;;;;;;;;4991619;28;20023;-77
2024/02/18 03:49:36;;;;;;;14.85;4.65;;;;;;;;;;4991468;28;20030;-77
2024/02/18 03:52:01;;;;;;;17.95;4.53;;;;;;;;;;4990855;28;20077;-77
2024/02/18 03:54:26;;;;;;;29.85;6.75;;;;;;;;;;4991273;28;20026;-77
2024/02/18 03:56:51;;;;;;;45.53;6.72;;;;;;;;;;4991251;28;20458;-77
2024/02/18 03:59:17;;;;;;;25.92;5.28;;;;;;;;;;4991136;28;20498;-77
2024/02/18 04:01:42;;;;;;;11.15;4.72;;;;;;;;;;4990799;28;20084;-78
2024/02/18 04:04:08;;;;;;;27.35;5.85;;;;;;;;;;4990959;28;20038;-77
2024/02/18 04:06:33;;;;;;;30.10;7.30;;;;;;;;;;4990849;28;20027;-77
2024/02/18 04:08:58;;;;;;;24.50;5.38;;;;;;;;;;4990955;28;20088;-77
2024/02/18 04:11:24;;;;;;;14.32;5.13;;;;;;;;;;4994833;28;20062;-77
2024/02/18 04:13:49;;;;;;;42.78;6.22;;;;;;;;;;4989386;28;20704;-78
2024/02/18 04:16:14;;;;;;;9.65;4.38;;;;;;;;;;4990891;28;20030;-78
2024/02/18 04:18:39;;;;;;;10.25;3.40;;;;;;;;;;4990903;28;20126;-78
2024/02/18 04:21:04;;;;;;;12.68;3.63;;;;;;;;;;4990171;28;20037;-78
2024/02/18 04:23:29;;;;;;;13.48;3.60;;;;;;;;;;4990818;28;20077;-78
2024/02/18 04:25:55;;;;;;;11.90;4.30;;;;;;;;;;4987564;28;20461;-78
2024/02/18 04:28:20;;;;;;;28.80;4.78;;;;;;;;;;4989646;28;20025;-77
2024/02/18 04:30:45;;;;;;;20.05;4.72;;;;;;;;;;4991268;28;20565;-77
2024/02/18 04:33:10;;;;;;;18.83;5.57;;;;;;;;;;4991031;28;20037;-77
2024/02/18 04:35:35;;;;;;;14.07;5.15;;;;;;;;;;4990633;28;20479;-78
2024/02/18 04:38:01;;;;;;;24.50;5.75;;;;;;;;;;4990911;28;20022;-77
2024/02/18 04:40:26;;;;;;;11.43;4.07;;;;;;;;;;4988970;28;20031;-78
2024/02/18 04:42:51;;;;;;;15.50;4.80;;;;;;;;;;4989465;28;20109;-78
2024/02/18 04:45:16;;;;;;;14.93;4.80;;;;;;;;;;4990595;28;20038;-77
2024/02/18 04:47:41;;;;;;;14.70;4.00;;;;;;;;;;4992925;28;20022;-77
2024/02/18 04:50:07;;;;;;;17.02;7.00;;;;;;;;;;4993162;28;20077;-78
2024/02/18 04:52:32;;;;;;;11.43;4.30;;;;;;;;;;4993985;28;20073;-77
2024/02/18 04:54:57;;;;;;;7.72;3.92;;;;;;;;;;4994291;28;20088;-78
2024/02/18 04:57:22;;;;;;;8.98;4.15;;;;;;;;;;4990264;28;20034;-78
2024/02/18 04:59:47;;;;;;;7.20;3.78;;;;;;;;;;4992258;28;20048;-77
2024/02/18 05:02:12;;;;;;;84.55;8.13;;;;;;;;;;4994186;28;20034;-78
2024/02/18 05:04:38;;;;;;;9.23;3.80;;;;;;;;;;4994233;28;20026;-78
2024/02/18 05:07:03;;;;;;;7.22;3.50;;;;;;;;;;4994641;28;20045;-78
2024/02/18 05:09:28;;;;;;;7.30;3.97;;;;;;;;;;4993312;28;20125;-78
2024/02/18 05:11:54;;;;;;;6.32;3.92;;;;;;;;;;4993061;28;20042;-78
2024/02/18 05:14:19;;;;;;;6.85;3.60;;;;;;;;;;4993825;28;20027;-77
2024/02/18 05:16:44;;;;;;;8.20;4.78;;;;;;;;;;4993005;28;20146;-78
2024/02/18 05:19:10;;;;;;;7.45;3.80;;;;;;;;;;4994594;28;20120;-78
2024/02/18 05:21:37;;;;;;;8.65;3.45;;;;;;;;;;4996031;28;20037;-78
2024/02/18 05:24:03;;;;;;;8.80;3.65;;;;;;;;;;4992287;28;20161;-78
2024/02/18 05:26:29;;;;;;;11.65;4.78;;;;;;;;;;4993969;28;20730;-78
2024/02/18 05:28:54;;;;;;;9.15;4.85;;;;;;;;;;4993976;28;20149;-78
2024/02/18 05:31:24;;;;;;;6.82;4.13;;;;;;;;;;4990617;28;20491;-78
2024/02/18 05:33:49;;;;;;;9.48;5.70;;;;;;;;;;4993337;28;20080;-78
2024/02/18 05:36:15;;;;;;;11.63;6.47;;;;;;;;;;4994012;28;20062;-78
2024/02/18 05:38:41;;;;;;;12.25;5.80;;;;;;;;;;4994233;28;20026;-77
2024/02/18 05:41:06;;;;;;;8.88;4.47;;;;;;;;;;4993040;28;20096;-78
2024/02/18 05:43:31;;;;;;;16.45;5.15;;;;;;;;;;4993449;28;20535;-78
2024/02/18 05:45:56;;;;;;;24.13;5.65;;;;;;;;;;4991272;28;20030;-78
2024/02/18 05:48:21;;;;;;;30.55;5.88;;;;;;;;;;4993663;28;20477;-78
2024/02/18 05:50:46;;;;;;;67.85;10.50;;;;;;;;;;4992336;28;20117;-77
2024/02/18 05:53:12;;;;;;;65.32;9.18;;;;;;;;;;4992598;28;20458;-77
2024/02/18 05:55:37;;;;;;;38.38;6.72;;;;;;;;;;4992909;28;20050;-77
2024/02/18 05:58:03;;;;;;;36.85;6.78;;;;;;;;;;4993146;28;20038;-77
2024/02/18 06:00:28;;;;;;;45.03;7.88;;;;;;;;;;4989779;28;20042;-77
2024/02/18 06:02:53;;;;;;;12.90;5.35;;;;;;;;;;4992845;28;20132;-77
2024/02/18 06:05:18;;;;;;;10.40;5.07;;;;;;;;;;4992086;28;20098;-77
2024/02/18 06:07:45;;;;;;;9.82;5.63;;;;;;;;;;4993591;28;20080;-77
2024/02/18 06:10:10;;;;;;;8.77;4.55;;;;;;;;;;4992800;28;20101;-77
2024/02/18 06:12:35;;;;;;;9.93;5.35;;;;;;;;;;4991462;28;20105;-77
2024/02/18 06:15:00;;;;;;;7.72;4.55;;;;;;;;;;4993070;28;20069;-77
2024/02/18 06:17:26;;;;;;;11.93;6.05;;;;;;;;;;4992665;28;20034;-77
2024/02/18 06:19:51;;;;;;;10.40;4.85;;;;;;;;;;4990364;28;20023;-77
2024/02/18 06:22:16;;;;;;;8.98;4.88;;;;;;;;;;4990862;28;20530;-77
2024/02/18 06:24:43;;;;;;;9.75;5.18;;;;;;;;;;4994114;28;20026;-77
2024/02/18 06:27:08;;;;;;;10.13;5.05;;;;;;;;;;4997731;28;20546;-77
2024/02/18 06:29:33;;;;;;;8.73;4.35;;;;;;;;;;4993086;28;20042;-77
2024/02/18 06:31:58;;;;;;;9.63;4.28;;;;;;;;;;4992056;28;20125;-77
2024/02/18 06:34:24;;;;;;;9.73;5.00;;;;;;;;;;4992669;28;20038;-77
2024/02/18 06:36:49;;;;;;;7.88;4.45;;;;;;;;;;4991235;28;20045;-77
2024/02/18 06:39:14;;;;;;;7.47;4.45;;;;;;;;;;4992667;28;20038;-77
2024/02/18 06:41:39;;;;;;;7.85;4.57;;;;;;;;;;4989736;28;20117;-77
2024/02/18 06:44:04;;;;;;;10.73;5.53;;;;;;;;;;4986269;28;20034;-77
2024/02/18 06:46:30;;;;;;;10.15;4.95;;;;;;;;;;4985633;28;20031;-77
2024/02/18 06:48:55;;;;;;;8.98;4.74;;;;;;;;;;4985925;28;20061;-77
2024/02/18 06:51:21;;;;;;;7.90;4.32;;;;;;;;;;4991740;28;20030;-77
2024/02/18 06:53:46;;;;;;;8.88;4.53;;;;;;;;;;4991145;28;20498;-77
2024/02/18 06:56:11;;;;;;;9.20;4.70;;;;;;;;;;4994066;28;20117;-77
2024/02/18 06:58:37;;;;;;;8.50;4.82;;;;;;;;;;4989609;28;20113;-77
2024/02/18 07:01:02;;;;;;;8.77;4.65;;;;;;;;;;4990481;28;20030;-77
2024/02/18 07:03:27;;;;;;;8.70;4.90;;;;;;;;;;4990201;28;20037;-77
2024/02/18 07:05:52;;;;;;;10.73;5.50;;;;;;;;;;4992106;28;20022;-77
2024/02/18 07:08:18;;;;;;;10.25;5.82;;;;;;;;;;4991604;28;20100;-77
2024/02/18 07:10:43;;;;;;;7.90;5.15;;;;;;;;;;4989321;28;20034;-77
2024/02/18 07:13:08;;;;;;;10.77;5.07;;;;;;;;;;4991058;28;20039;-77
2024/02/18 07:15:33;;;;;;;8.57;4.88;;;;;;;;;;4990822;28;20037;-77
2024/02/18 07:17:58;;;;;;;9.90;5.20;;;;;;;;;;4992071;28;20035;-77
2024/02/18 07:20:25;;;;;;;8.05;4.43;;;;;;;;;;4992565;28;20045;-77
2024/02/18 07:22:50;;;;;;;9.40;4.97;;;;;;;;;;4992120;28;20073;-77
2024/02/18 07:25:15;;;;;;;10.95;5.25;;;;;;;;;;4996255;28;20487;-77
2024/02/18 07:27:41;;;;;;;9.13;4.32;;;;;;;;;;4992066;28;20081;-77
2024/02/18 07:30:06;;;;;;;7.43;4.53;;;;;;;;;;4991935;28;20081;-77
2024/02/18 07:32:31;;;;;;;9.57;5.05;;;;;;;;;;4990137;28;20128;-77
2024/02/18 07:34:56;;;;;;;12.32;5.70;;;;;;;;;;4990995;28;20053;-77
2024/02/18 07:37:22;;;;;;;7.75;4.00;;;;;;;;;;4986840;28;20065;-77
2024/02/18 07:39:47;;;;;;;10.15;5.13;;;;;;;;;;4989074;28;20455;-77
2024/02/18 07:42:13;;;;;;;8.95;4.78;;;;;;;;;;4987966;28;20053;-77
2024/02/18 07:44:38;;;;;;;7.07;4.50;;;;;;;;;;4989248;28;20064;-77
2024/02/18 07:47:03;;;;;;;8.93;4.50;;;;;;;;;;4991488;28;20046;-77
2024/02/18 07:49:28;;;;;;;9.90;5.50;;;;;;;;;;4992000;28;20034;-77
2024/02/18 07:51:54;;;;;;;8.55;5.72;;;;;;;;;;4991169;28;20069;-77
2024/02/18 07:54:19;;;;;;;8.20;5.30;;;;;;;;;;4991487;28;20033;-77
2024/02/18 07:56:44;;;;;;;8.98;5.55;;;;;;;;;;4990070;28;20038;-77
2024/02/18 07:59:10;;;;;;;10.05;5.22;;;;;;;;;;4991518;28;20042;-77
2024/02/18 08:01:35;;;;;;;11.35;6.82;;;;;;;;;;4989926;28;20104;-77
2024/02/18 08:04:01;;;;;;;9.55;5.60;;;;;;;;;;4991179;28;20036;-77
2024/02/18 08:06:29;;;;;;;9.30;5.72;;;;;;;;;;4991069;28;20030;-77
2024/02/18 08:08:54;;;;;;;11.27;5.75;;;;;;;;;;4990067;28;20517;-77
2024/02/18 08:11:19;;;;;;;9.18;5.88;;;;;;;;;;4990907;28;20034;-77
2024/02/18 08:13:44;;;;;;;8.13;5.32;;;;;;;;;;4991022;28;20027;-77
2024/02/18 08:16:09;;;;;;;10.85;6.22;;;;;;;;;;4990936;28;20117;-77
2024/02/18 08:18:35;;;;;;;10.23;5.88;;;;;;;;;;4991687;28;20038;-78
2024/02/18 08:21:00;;;;;;;10.20;6.05;;;;;;;;;;4990375;28;20065;-77
2024/02/18 08:23:25;;;;;;;10.65;5.93;;;;;;;;;;4982637;28;20450;-77
2024/02/18 08:25:50;;;;;;;11.95;6.45;;;;;;;;;;4991857;28;20102;-77
2024/02/18 08:28:15;;;;;;;9.93;6.28;;;;;;;;;;4988559;28;20054;-77
2024/02/18 08:30:40;;;;;;;9.95;6.05;;;;;;;;;;4993963;28;20543;-77
2024/02/18 08:33:06;;;;;;;8.58;5.26;;;;;;;;;;4994204;28;20018;-77
2024/02/18 08:35:31;;;;;;;9.90;5.90;;;;;;;;;;4993429;28;20479;-77
2024/02/18 08:37:56;;;;;;;10.43;5.53;;;;;;;;;;4993409;28;20042;-78
2024/02/18 08:40:21;;;;;;;9.48;5.78;;;;;;;;;;4994010;28;20444;-76
2024/02/18 08:42:46;;;;;;;10.70;5.75;;;;;;;;;;4990304;28;20034;-77
2024/02/18 08:45:11;;;;;;;8.98;5.57;;;;;;;;;;4993947;28;20517;-77
2024/02/18 08:47:37;;;;;;;8.20;5.43;;;;;;;;;;4992471;28;20038;-77
2024/02/18 08:50:02;;;;;;;8.55;5.13;;;;;;;;;;4995665;28;20045;-77
2024/02/18 08:52:27;;;;;;;11.63;6.50;;;;;;;;;;4993843;28;20033;-77
2024/02/18 08:54:53;;;;;;;10.30;6.47;;;;;;;;;;4994115;28;20033;-77
2024/02/18 08:57:18;;;;;;;10.95;6.30;;;;;;;;;;4991821;28;20035;-77
2024/02/18 08:59:43;;;;;;;9.93;5.85;;;;;;;;;;4997122;28;20038;-77
2024/02/18 09:02:10;;;;;;;9.07;6.25;;;;;;;;;;4991243;28;20084;-77
2024/02/18 09:04:35;;;;;;;9.02;5.65;;;;;;;;;;4994361;28;20487;-77
2024/02/18 09:07:00;;;;;;;9.07;5.70;;;;;;;;;;4990920;28;20093;-77
2024/02/18 09:09:25;;;;;;;9.57;6.43;;;;;;;;;;4988041;28;20031;-77
2024/02/18 09:11:51;;;;;;;9.75;5.88;;;;;;;;;;4993985;28;20054;-77
2024/02/18 09:14:16;;;;;;;8.75;5.63;;;;;;;;;;4992607;28;20038;-77
2024/02/18 09:16:41;;;;;;;10.70;6.45;;;;;;;;;;4994468;28;20039;-77
2024/02/18 09:19:06;;;;;;;11.25;6.57;;;;;;;;;;4990429;28;20041;-77
2024/02/18 09:21:31;;;;;;;9.50;6.00;;;;;;;;;;4993696;28;20041;-77
2024/02/18 09:23:56;;;;;;;13.60;6.57;;;;;;;;;;4991718;28;20089;-77
2024/02/18 09:26:22;;;;;;;11.80;7.05;;;;;;;;;;4994392;28;20038;-77
2024/02/18 09:28:48;;;;;;;9.98;5.60;;;;;;;;;;4993980;28;20105;-77
2024/02/18 09:31:14;;;;;;;11.10;6.38;;;;;;;;;;4993432;28;20038;-77
2024/02/18 09:33:42;;;;;;;7.63;5.18;;;;;;;;;;4991384;28;20040;-78
2024/02/18 09:36:07;;;;;;;8.88;5.93;;;;;;;;;;4992758;28;20113;-77
2024/02/18 09:38:33;;;;;;;9.52;6.00;;;;;;;;;;4993129;28;20202;-77
2024/02/18 09:40:58;;;;;;;9.73;5.85;;;;;;;;;;4993492;28;20076;-77
2024/02/18 09:43:24;;;;;;;8.05;5.55;;;;;;;;;;4990904;28;20042;-77
2024/02/18 09:45:50;;;;;;;9.75;5.82;;;;;;;;;;4993957;28;20030;-78
2024/02/18 09:48:16;;;;;;;9.65;5.97;;;;;;;;;;4992620;28;20403;-77
2024/02/18 09:50:41;;;;;;;10.18;6.07;;;;;;;;;;4993216;28;20023;-77
2024/02/18 09:53:07;;;;;;;9.27;5.95;;;;;;;;;;4993935;28;20557;-77
2024/02/18 09:55:32;;;;;;;9.60;6.57;;;;;;;;;;4997143;28;20424;-77
2024/02/18 09:57:58;;;;;;;10.15;5.78;;;;;;;;;;4991548;28;20120;-77
2024/02/18 10:00:25;;;;;;;9.38;5.80;;;;;;;;;;4992772;28;20137;-78
2024/02/18 10:02:51;;;;;;;10.93;6.20;;;;;;;;;;4992707;28;20038;-78
2024/02/18 10:05:16;;;;;;;9.32;6.57;;;;;;;;;;4993607;28;20098;-78
2024/02/18 10:07:41;;;;;;;9.73;6.05;;;;;;;;;;4993577;28;20031;-78
2024/02/18 10:10:07;;;;;;;9.25;6.53;;;;;;;;;;4993729;28;20026;-78
2024/02/18 10:12:33;;;;;;;10.95;6.55;;;;;;;;;;4994635;28;20492;-77
2024/02/18 10:15:01;;;;;;;11.63;7.63;;;;;;;;;;4993159;28;20030;-77
2024/02/18 10:17:26;;;;;;;11.40;6.72;;;;;;;;;;4990195;28;20113;-77
2024/02/18 10:19:51;;;;;;;10.90;5.53;;;;;;;;;;4993612;28;20109;-78
2024/02/18 10:22:17;;;;;;;9.43;6.82;;;;;;;;;;4992838;28;20483;-77
2024/02/18 10:24:42;;;;;;;11.18;7.15;;;;;;;;;;4993110;28;20023;-77
2024/02/18 10:27:07;;;;;;;10.13;6.90;;;;;;;;;;4992237;28;20026;-77
2024/02/18 10:29:33;;;;;;;12.80;8.00;;;;;;;;;;4992581;28;20505;-77
2024/02/18 10:31:59;;;;;;;11.82;7.57;;;;;;;;;;4992362;28;20039;-77
2024/02/18 10:34:24;;;;;;;11.68;7.70;;;;;;;;;;4992873;28;20032;-77
2024/02/18 10:36:51;;;;;;;13.65;8.10;;;;;;;;;;4989005;28;20046;-78
2024/02/18 10:39:16;;;;;;;12.13;8.38;;;;;;;;;;4990467;28;20046;-77
2024/02/18 10:41:52;;;;;;;10.82;6.50;;;;;;;;;;4992023;28;20427;-77
2024/02/18 10:44:17;;;;;;;12.30;6.95;;;;;;;;;;4988605;28;20031;-77
2024/02/18 10:46:45;;;;;;;9.55;6.20;;;;;;;;;;4991393;28;20196;-77
2024/02/18 10:49:14;;;;;;;10.50;6.22;;;;;;;;;;4992338;28;20030;-77
2024/02/18 10:51:40;;;;;;;12.15;6.88;;;;;;;;;;4991589;28;20034;-77
2024/02/18 10:54:14;;;;;;;13.20;7.65;;;;;;;;;;4991608;28;20714;-78
2024/02/18 10:56:40;;;;;;;10.63;7.35;;;;;;;;;;4991298;28;20023;-77
2024/02/18 10:59:15;;;;;;;14.05;7.95;;;;;;;;;;4993932;28;20061;-77
2024/02/18 11:01:42;;;;;;;10.52;7.18;;;;;;;;;;4994862;28;20060;-78
2024/02/18 11:04:09;;;;;;;12.55;7.32;;;;;;;;;;4991280;28;20097;-78
2024/02/18 11:06:35;;;;;;;11.77;7.80;;;;;;;;;;4991397;28;20050;-78
2024/02/18 11:09:00;;;;;;;13.55;7.90;;;;;;;;;;4993050;28;20057;-78
2024/02/18 11:11:26;;;;;;;11.13;6.78;;;;;;;;;;4992621;28;20034;-77
2024/02/18 11:13:52;;;;;;;10.85;7.68;;;;;;;;;;4989205;28;20061;-78
2024/02/18 11:16:19;;;;;;;12.90;7.80;;;;;;;;;;4993129;28;20041;-78
2024/02/18 11:18:44;;;;;;;11.38;7.63;;;;;;;;;;4988364;28;20084;-78
2024/02/18 11:21:13;;;;;;;10.75;7.93;;;;;;;;;;4989054;28;20037;-78
2024/02/18 11:23:45;;;;;;;11.30;7.68;;;;;;;;;;4987518;28;20062;-77
2024/02/18 11:26:10;;;;;;;;;;;;;;;;;;4990019;28;20714;-78
2024/02/18 11:28:35;;;;;;;10.43;6.93;;;;;;;;;;4986642;28;20335;-78
2024/02/18 11:31:00;;;;;;;12.27;6.70;;;;;;;;;;4985715;28;20030;-78
2024/02/18 11:33:30;;;;;;;12.20;8.00;;;;;;;;;;4987246;28;20050;-78
2024/02/18 11:36:14;;;;;;;12.57;8.23;;;;;;;;;;4988912;28;20550;-78
2024/02/18 11:38:46;;;;;;;13.05;7.88;;;;;;;;;;4986105;28;20079;-78
2024/02/18 11:41:16;;;;;;;12.00;7.43;;;;;;;;;;4989579;28;20030;-77
2024/02/18 11:43:41;;;;;;;11.20;6.72;;;;;;;;;;5014432;28;20026;-78
2024/02/18 11:46:15;;;;;;;10.83;6.77;;;;;;;;;;4992254;28;20076;-77
2024/02/18 11:48:40;;;;;;;13.73;6.85;;;;;;;;;;4986155;28;20300;-78
2024/02/18 11:51:05;;;;;;;11.37;7.87;;;;;;;;;;4989043;28;20499;-77
2024/02/18 11:53:30;;;;;;;9.63;6.73;;;;;;;;;;4991238;28;20276;-78
2024/02/18 11:55:56;;;;;;;11.05;6.80;;;;;;;;;;4987644;28;20786;-78
2024/02/18 11:58:21;;;;;;;8.98;6.38;;;;;;;;;;4986520;28;20038;-78
2024/02/18 12:00:46;;;;;;;10.63;6.07;;;;;;;;;;4988700;28;20093;-78
2024/02/18 12:03:12;;;;;;;9.97;6.37;;;;;;;;;;4983011;28;20744;-77
2024/02/18 12:05:38;;;;;;;9.77;6.43;;;;;;;;;;4990654;28;20281;-77
2024/02/18 12:08:03;;;;;;;10.10;6.50;;;;;;;;;;4989587;28;20031;-78
2024/02/18 12:10:30;;;;;;;10.15;5.80;;;;;;;;;;4991123;28;20104;-78
2024/02/18 12:12:55;;;;;;;10.35;6.05;;;;;;;;;;4987040;28;20037;-78
2024/02/18 12:15:22;;;;;;;7.15;4.30;;;;;;;;;;4991176;28;20391;-77
2024/02/18 12:17:48;;;;;;;8.93;5.45;;;;;;;;;;4989695;28;20037;-78
2024/02/18 12:20:16;;;;;;;9.63;6.15;;;;;;;;;;4992687;28;20550;-78
2024/02/18 12:22:42;;;;;;;9.68;4.88;;;;;;;;;;4989416;28;20120;-78
2024/02/18 12:25:07;;;;;;;8.10;4.45;;;;;;;;;;4988427;28;20440;-77
2024/02/18 12:27:32;;;;;;;11.05;5.88;;;;;;;;;;4987468;28;20054;-78
2024/02/18 12:29:57;;;;;;;7.43;5.00;;;;;;;;;;4996922;28;20027;-78
2024/02/18 12:32:23;;;;;;;8.98;4.70;;;;;;;;;;4991046;28;20317;-78
2024/02/18 12:34:50;;;;;;;8.77;4.65;;;;;;;;;;4991056;28;20045;-78
2024/02/18 12:37:15;;;;;;;7.32;3.70;;;;;;;;;;4988152;28;20034;-78
2024/02/18 12:39:41;;;;;;;9.32;5.15;;;;;;;;;;4990617;28;20044;-78
2024/02/18 12:42:06;;;;;;;7.82;4.10;;;;;;;;;;4989500;28;20512;-78
2024/02/18 12:44:33;;;;;;;7.20;5.00;;;;;;;;;;4987690;28;20121;-78
2024/02/18 12:46:58;;;;;;;7.85;4.07;;;;;;;;;;4985047;28;20064;-78
2024/02/18 12:49:26;;;;;;;7.15;4.55;;;;;;;;;;4987258;28;20437;-78
2024/02/18 12:51:52;;;;;;;7.82;4.45;;;;;;;;;;4988697;28;20042;-78
2024/02/18 12:54:17;;;;;;;5.80;3.90;;;;;;;;;;4990219;28;20046;-77
2024/02/18 12:56:42;;;;;;;6.75;3.97;;;;;;;;;;4989748;28;20081;-78
2024/02/18 12:59:07;;;;;;;6.87;4.03;;;;;;;;;;4986703;28;20466;-78
2024/02/18 13:01:33;;;;;;;6.07;3.58;;;;;;;;;;4987200;28;20372;-77
2024/02/18 13:03:58;;;;;;;6.05;3.63;;;;;;;;;;4990563;28;20031;-77
2024/02/18 13:06:24;;;;;;;6.35;3.95;;;;;;;;;;4990348;28;20041;-78
2024/02/18 13:08:49;;;;;;;5.28;3.50;;;;;;;;;;4994498;28;20148;-78
2024/02/18 13:11:15;;;;;;;6.35;3.70;;;;;;;;;;4991031;28;20030;-77
2024/02/18 13:13:41;;;;;;;5.43;3.45;;;;;;;;;;4995036;28;20040;-78
2024/02/18 13:16:06;;;;;;;5.80;3.15;;;;;;;;;;4996136;28;20026;-77
2024/02/18 13:18:31;;;;;;;6.18;3.38;;;;;;;;;;4994717;28;20041;-78
2024/02/18 13:20:56;;;;;;;6.10;3.50;;;;;;;;;;4985158;28;20042;-79
2024/02/18 13:23:22;;;;;;;5.55;3.72;;;;;;;;;;4992942;28;20647;-79
2024/02/18 13:25:47;;;;;;;7.80;3.60;;;;;;;;;;4990585;28;20509;-78
2024/02/18 13:28:16;;;;;;;5.30;3.23;;;;;;;;;;4993980;28;21275;-78
2024/02/18 13:30:41;;;;;;;4.38;2.60;;;;;;;;;;4992722;28;20274;-78
2024/02/18 13:33:06;;;;;;;7.00;2.90;;;;;;;;;;4993901;28;20074;-79
2024/02/18 13:35:33;;;;;;;7.45;2.83;;;;;;;;;;4990289;28;20301;-78
2024/02/18 13:37:58;;;;;;;5.07;2.55;;;;;;;;;;4994824;28;20030;-79
2024/02/18 13:40:23;;;;;;;5.37;3.07;;;;;;;;;;4993333;28;20049;-78
2024/02/18 13:42:48;;;;;;;4.50;2.65;;;;;;;;;;4994180;28;20305;-78
2024/02/18 13:45:14;;;;;;;5.60;2.57;;;;;;;;;;4990159;28;20027;-78
2024/02/18 13:47:39;;;;;;;4.25;2.30;;;;;;;;;;4994191;28;20273;-79
2024/02/18 13:50:04;;;;;;;4.90;2.65;;;;;;;;;;4996017;28;20030;-79
2024/02/18 13:52:30;;;;;;;4.93;2.78;;;;;;;;;;4993739;28;20030;-78
2024/02/18 13:54:55;;;;;;;3.55;2.00;;;;;;;;;;4993769;28;20038;-78
2024/02/18 13:57:20;;;;;;;3.67;1.92;;;;;;;;;;4994185;28;20072;-78
2024/02/18 13:59:45;;;;;;;3.63;2.13;;;;;;;;;;4993689;28;20491;-79
2024/02/18 14:02:10;;;;;;;4.65;2.20;;;;;;;;;;4991613;28;20351;-78
2024/02/18 14:04:36;;;;;;;4.17;1.80;;;;;;;;;;4993549;28;20088;-78
2024/02/18 14:07:01;;;;;;;5.07;2.10;;;;;;;;;;4992675;28;20277;-78
2024/02/18 14:09:26;;;;;;;3.25;1.65;;;;;;;;;;4993527;28;20029;-79
2024/02/18 14:11:51;;;;;;;2.58;1.40;;;;;;;;;;4991716;28;20041;-78
2024/02/18 14:14:16;;;;;;;4.28;2.13;;;;;;;;;;4993450;28;20069;-78
2024/02/18 14:16:43;;;;;;;3.88;2.20;;;;;;;;;;4994817;28;20034;-78
2024/02/18 14:19:09;;;;;;;3.17;1.65;;;;;;;;;;4993636;28;20034;-79
2024/02/18 14:21:35;;;;;;;4.63;1.83;;;;;;;;;;4992122;28;20450;-79
2024/02/18 14:24:00;;;;;;;3.58;2.03;;;;;;;;;;4992346;28;20054;-79
2024/02/18 14:26:25;;;;;;;3.50;1.80;;;;;;;;;;4994549;28;20050;-79
2024/02/18 14:28:50;;;;;;;3.60;1.50;;;;;;;;;;4998696;28;20050;-78